Time;durP1;ratioP1;P1;durP2;ratioP2;P2;SDS_P1;SDS_P2;PMS_P1;PMS_P2;Temp;Humidity;BMP_temperature;BMP_pressure;BME280_temperature;BME280_humidity;BME280_pressure;Samples;Min_cycle;Max_cycle;Signal;HPM_P1;HPM_P2
2024/01/13 00:01:18;;;;;;;11.88;7.35;;;4.80;99.90;;;;;;5008595;28;20275;-72
2024/01/13 00:03:45;;;;;;;9.88;6.57;;;4.70;99.90;;;;;;4995645;28;20210;-70
2024/01/13 00:06:15;;;;;;;14.73;8.88;;;4.80;99.90;;;;;;5001904;28;20640;-69
2024/01/13 00:08:42;;;;;;;11.15;7.53;;;4.80;99.90;;;;;;5011909;28;20249;-69
2024/01/13 00:11:09;;;;;;;16.67;7.88;;;4.80;99.90;;;;;;5005862;28;20221;-69
2024/01/13 00:13:36;;;;;;;13.02;8.73;;;4.80;99.90;;;;;;5002738;28;20240;-68
2024/01/13 00:16:03;;;;;;;14.48;9.40;;;4.80;99.90;;;;;;5000495;28;20237;-67
2024/01/13 00:18:32;;;;;;;9.65;6.78;;;4.80;99.90;;;;;;4995925;28;20264;-71
2024/01/13 00:20:59;;;;;;;10.65;7.53;;;4.80;99.90;;;;;;5002522;28;20252;-67
2024/01/13 00:23:26;;;;;;;10.02;7.03;;;4.90;99.90;;;;;;5003964;28;20260;-69
2024/01/13 00:25:53;;;;;;;9.88;7.15;;;4.80;99.90;;;;;;5000631;28;20619;-69
2024/01/13 00:28:20;;;;;;;11.50;8.43;;;4.90;99.90;;;;;;5003696;28;20198;-68
2024/01/13 00:30:47;;;;;;;13.35;7.35;;;4.90;99.90;;;;;;5004348;28;20712;-70
2024/01/13 00:33:14;;;;;;;9.20;6.80;;;4.80;99.90;;;;;;5009539;28;20280;-68
2024/01/13 00:35:42;;;;;;;9.10;6.97;;;4.80;99.90;;;;;;4996774;28;20233;-69
2024/01/13 00:38:09;;;;;;;11.27;6.25;;;4.80;99.90;;;;;;5010356;28;20607;-66
2024/01/13 00:40:36;;;;;;;9.65;5.43;;;4.70;99.90;;;;;;5008357;28;20216;-71
2024/01/13 00:43:03;;;;;;;11.00;7.47;;;4.70;99.90;;;;;;5003090;28;20338;-67
2024/01/13 00:45:30;;;;;;;9.52;7.82;;;4.60;99.90;;;;;;4996308;28;20257;-67
2024/01/13 00:47:57;;;;;;;8.57;6.47;;;4.60;99.90;;;;;;4999944;28;20273;-69
2024/01/13 00:50:24;;;;;;;11.23;6.85;;;4.60;99.90;;;;;;5000905;28;20734;-72
2024/01/13 00:52:53;;;;;;;10.70;7.30;;;4.50;99.90;;;;;;5003950;28;20240;-69
2024/01/13 00:55:20;;;;;;;10.82;7.15;;;4.50;99.90;;;;;;4999532;28;20600;-68
2024/01/13 00:57:47;;;;;;;10.68;6.38;;;4.60;99.90;;;;;;5006813;28;20248;-68
2024/01/13 01:00:15;;;;;;;11.80;7.28;;;4.50;99.90;;;;;;4999836;28;20197;-69
2024/01/13 01:02:41;;;;;;;9.73;6.78;;;4.50;99.90;;;;;;4998889;28;20233;-69
2024/01/13 01:05:09;;;;;;;10.63;7.18;;;4.50;99.90;;;;;;4996726;28;20206;-68
2024/01/13 01:07:36;;;;;;;12.18;7.20;;;4.60;99.90;;;;;;5001237;28;20206;-68
2024/01/13 01:10:06;;;;;;;11.20;7.22;;;4.60;99.90;;;;;;5004233;28;20256;-68
2024/01/13 01:12:33;;;;;;;10.50;7.68;;;4.50;99.90;;;;;;5010037;28;20225;-67
2024/01/13 01:15:31;;;;;;;9.35;6.97;;;4.50;99.90;;;;;;5003967;28;20293;-69
2024/01/13 01:17:58;;;;;;;12.35;6.93;;;4.50;99.90;;;;;;4999225;28;20206;-68
2024/01/13 01:20:25;;;;;;;10.23;7.90;;;4.50;99.90;;;;;;4993556;28;20276;-71
2024/01/13 01:22:52;;;;;;;10.20;6.40;;;4.60;99.90;;;;;;4997320;28;20332;-69
2024/01/13 01:25:20;;;;;;;8.55;7.30;;;4.60;99.90;;;;;;4996960;28;20252;-71
2024/01/13 01:27:47;;;;;;;13.05;7.60;;;4.60;99.90;;;;;;4996999;28;20686;-71
2024/01/13 01:30:14;;;;;;;11.30;7.50;;;4.60;99.90;;;;;;4998709;28;20737;-69
2024/01/13 01:32:41;;;;;;;11.35;8.13;;;4.60;99.90;;;;;;4993904;28;20257;-70
2024/01/13 01:35:08;;;;;;;14.95;9.10;;;4.50;99.90;;;;;;4997123;28;20225;-68
2024/01/13 01:37:41;;;;;;;17.00;8.15;;;4.50;99.90;;;;;;5006496;28;20216;-70
2024/01/13 01:40:13;;;;;;;12.98;7.68;;;4.40;99.90;;;;;;5004832;28;20202;-70
2024/01/13 01:46:06;;;;;;;11.25;8.02;;;4.30;99.90;;;;;;5010469;28;20274;-69
2024/01/13 01:48:36;;;;;;;10.55;7.80;;;4.30;99.90;;;;;;4997499;28;20197;-69
2024/01/13 01:51:03;;;;;;;13.70;8.85;;;4.30;99.90;;;;;;4995094;28;20708;-68
2024/01/13 01:53:30;;;;;;;10.63;7.28;;;4.30;99.90;;;;;;4995075;28;20284;-69
2024/01/13 01:55:59;;;;;;;14.60;7.25;;;4.30;99.90;;;;;;5003917;28;20236;-71
2024/01/13 01:58:26;;;;;;;12.07;6.68;;;4.30;99.90;;;;;;4997273;28;20624;-69
2024/01/13 02:00:53;;;;;;;11.57;7.55;;;4.30;99.90;;;;;;5004968;28;20232;-70
2024/01/13 02:03:22;;;;;;;14.50;8.50;;;4.30;99.90;;;;;;5001610;28;20323;-68
2024/01/13 02:05:49;;;;;;;25.20;7.07;;;4.20;99.90;;;;;;5001119;28;20253;-68
2024/01/13 02:08:16;;;;;;;14.32;7.80;;;4.30;99.90;;;;;;5005160;28;20201;-70
2024/01/13 02:10:43;;;;;;;9.73;6.90;;;4.30;99.90;;;;;;4995615;28;20253;-68
2024/01/13 02:13:10;;;;;;;13.65;7.50;;;4.20;99.90;;;;;;5004292;28;20228;-68
2024/01/13 02:15:37;;;;;;;8.60;5.88;;;4.20;99.90;;;;;;5005413;28;20225;-68
2024/01/13 02:18:04;;;;;;;10.57;7.93;;;4.30;99.90;;;;;;4994229;28;20241;-70
2024/01/13 02:20:33;;;;;;;12.95;8.40;;;4.30;99.90;;;;;;4998857;28;20230;-70
2024/01/13 02:23:01;;;;;;;16.15;7.05;;;4.30;99.90;;;;;;4998382;28;20585;-71
2024/01/13 02:25:28;;;;;;;13.15;7.82;;;4.30;99.90;;;;;;5006867;28;20345;-70
2024/01/13 02:27:55;;;;;;;12.55;6.88;;;4.30;99.90;;;;;;4998606;28;20206;-69
2024/01/13 02:30:22;;;;;;;16.23;8.65;;;4.30;99.90;;;;;;5006227;28;20253;-68
2024/01/13 02:32:49;;;;;;;10.35;8.23;;;4.20;99.90;;;;;;5001350;28;20221;-69
2024/01/13 02:35:22;;;;;;;15.85;6.75;;;4.40;99.90;;;;;;5000165;28;20206;-67
2024/01/13 02:37:49;;;;;;;11.27;6.78;;;4.30;99.90;;;;;;5007027;28;20555;-68
2024/01/13 02:40:18;;;;;;;11.75;7.28;;;4.50;99.90;;;;;;4998057;28;20209;-71
2024/01/13 02:42:45;;;;;;;9.23;6.68;;;4.50;99.90;;;;;;5005343;28;20312;-70
2024/01/13 02:45:18;;;;;;;13.90;9.25;;;4.50;99.90;;;;;;4998169;28;20202;-71
2024/01/13 02:47:46;;;;;;;13.90;7.68;;;4.50;99.90;;;;;;5001451;28;20233;-72
2024/01/13 02:50:14;;;;;;;12.93;8.15;;;4.50;99.90;;;;;;4998001;28;20344;-68
2024/01/13 02:52:43;;;;;;;9.95;7.10;;;4.40;99.90;;;;;;5001277;28;20342;-70
2024/01/13 02:55:10;;;;;;;8.82;6.30;;;4.40;99.90;;;;;;5003542;28;20207;-67
2024/01/13 02:57:38;;;;;;;15.35;9.45;;;4.40;99.90;;;;;;4999670;28;20296;-68
2024/01/13 03:00:09;;;;;;;14.40;8.93;;;4.40;99.90;;;;;;5006849;28;20202;-68
2024/01/13 03:02:36;;;;;;;10.73;6.75;;;4.40;99.90;;;;;;5002395;28;20233;-71
2024/01/13 03:05:03;;;;;;;15.73;9.30;;;4.30;99.90;;;;;;5005245;28;20228;-71
2024/01/13 03:07:31;;;;;;;19.92;9.98;;;4.30;99.90;;;;;;4997246;28;20367;-72
2024/01/13 03:09:57;;;;;;;9.65;7.88;;;4.30;99.90;;;;;;4995475;28;20616;-70
2024/01/13 03:12:25;;;;;;;14.15;8.23;;;4.30;99.90;;;;;;4998118;28;20222;-70
2024/01/13 03:14:53;;;;;;;13.52;8.70;;;4.30;99.90;;;;;;4997260;28;20219;-71
2024/01/13 03:17:20;;;;;;;14.65;8.90;;;4.30;99.90;;;;;;4995797;28;20206;-72
2024/01/13 03:19:47;;;;;;;9.80;7.47;;;4.30;99.90;;;;;;5008272;28;20243;-70
2024/01/13 03:22:14;;;;;;;13.23;8.10;;;4.30;99.90;;;;;;5010084;28;20275;-68
2024/01/13 03:24:41;;;;;;;13.80;8.75;;;4.30;99.90;;;;;;5001600;28;20202;-68
2024/01/13 03:27:07;;;;;;;13.30;7.70;;;4.40;99.90;;;;;;4997998;28;20296;-70
2024/01/13 03:29:34;;;;;;;6.90;6.20;;;4.40;99.90;;;;;;4999412;28;20206;-69
2024/01/13 03:32:03;;;;;;;10.88;7.00;;;4.20;99.90;;;;;;5001265;28;20226;-67
2024/01/13 03:34:30;;;;;;;7.80;5.65;;;4.30;99.90;;;;;;5001244;28;20287;-69
2024/01/13 03:36:57;;;;;;;9.55;6.05;;;4.30;99.90;;;;;;4999119;28;20230;-69
2024/01/13 03:39:24;;;;;;;8.93;6.53;;;4.30;99.90;;;;;;5001717;28;20241;-69
2024/01/13 03:41:50;;;;;;;10.77;6.45;;;4.20;99.90;;;;;;4993777;28;20288;-69
2024/01/13 03:44:17;;;;;;;13.65;8.30;;;4.30;99.90;;;;;;4995764;28;20261;-68
2024/01/13 03:46:44;;;;;;;11.50;6.60;;;4.20;99.90;;;;;;5005099;28;20264;-68
2024/01/13 03:49:13;;;;;;;10.40;7.65;;;4.30;99.90;;;;;;4995049;28;20210;-69
2024/01/13 03:51:40;;;;;;;9.30;5.47;;;4.30;99.90;;;;;;4999816;28;20642;-67
2024/01/13 03:54:07;;;;;;;11.93;7.68;;;4.20;99.90;;;;;;5004360;28;20206;-68
2024/01/13 03:56:34;;;;;;;6.32;5.63;;;4.20;99.90;;;;;;5002716;28;20206;-70
2024/01/13 03:59:01;;;;;;;11.98;6.90;;;4.20;99.90;;;;;;4997388;28;20205;-68
2024/01/13 04:01:28;;;;;;;9.73;6.30;;;4.20;99.90;;;;;;5002510;28;20269;-69
2024/01/13 04:03:55;;;;;;;9.57;5.15;;;4.30;99.90;;;;;;5010464;28;20201;-70
2024/01/13 04:06:23;;;;;;;7.68;5.90;;;4.30;99.90;;;;;;4996829;28;20291;-70
2024/01/13 04:08:50;;;;;;;14.52;5.90;;;4.30;99.90;;;;;;4998725;28;20274;-72
2024/01/13 04:11:17;;;;;;;7.63;6.70;;;4.40;99.90;;;;;;4998630;28;20641;-70
2024/01/13 04:13:44;;;;;;;10.23;6.95;;;4.40;99.90;;;;;;5002676;28;20612;-70
2024/01/13 04:16:11;;;;;;;8.93;6.55;;;4.30;99.90;;;;;;4996794;28;20681;-68
2024/01/13 04:18:38;;;;;;;8.65;5.20;;;4.30;99.90;;;;;;5008298;28;20206;-71
2024/01/13 04:21:06;;;;;;;7.07;5.50;;;4.30;99.90;;;;;;4992546;28;20206;-69
2024/01/13 04:23:34;;;;;;;13.05;6.25;;;4.30;99.90;;;;;;5006774;28;20222;-71
2024/01/13 04:26:01;;;;;;;9.05;5.88;;;4.40;99.90;;;;;;5008240;28;20688;-70
2024/01/13 04:28:28;;;;;;;6.25;5.32;;;4.40;99.90;;;;;;5012699;28;20977;-68
2024/01/13 04:30:55;;;;;;;10.77;6.75;;;4.40;99.90;;;;;;5002897;28;20689;-71
2024/01/13 04:33:22;;;;;;;7.30;5.20;;;4.40;99.90;;;;;;5002899;28;20249;-69
2024/01/13 04:35:49;;;;;;;10.07;5.75;;;4.40;99.90;;;;;;5002113;28;20657;-70
2024/01/13 04:38:16;;;;;;;11.38;5.72;;;4.40;99.90;;;;;;5000529;28;20660;-69
2024/01/13 04:40:47;;;;;;;8.70;5.90;;;4.40;99.90;;;;;;5003173;28;20628;-67
2024/01/13 04:43:14;;;;;;;11.13;5.90;;;4.30;99.90;;;;;;4997202;28;20272;-67
2024/01/13 04:45:41;;;;;;;6.47;4.95;;;4.30;99.90;;;;;;4999193;28;20252;-67
2024/01/13 04:48:08;;;;;;;7.65;5.25;;;4.30;99.90;;;;;;5005467;28;20640;-67
2024/01/13 04:50:35;;;;;;;8.93;6.35;;;4.30;99.90;;;;;;5000404;28;20576;-70
2024/01/13 04:53:02;;;;;;;6.80;5.40;;;4.40;99.90;;;;;;5006804;28;20247;-69
2024/01/13 04:55:29;;;;;;;7.03;5.15;;;4.40;99.90;;;;;;4993678;28;20257;-69
2024/01/13 04:57:58;;;;;;;7.75;5.10;;;4.50;99.90;;;;;;4998672;28;20228;-68
2024/01/13 05:00:25;;;;;;;8.80;6.40;;;4.40;99.90;;;;;;4995700;28;20206;-69
2024/01/13 05:02:52;;;;;;;10.93;5.60;;;4.30;99.90;;;;;;4996454;28;20225;-68
2024/01/13 05:05:19;;;;;;;6.95;5.07;;;4.30;99.90;;;;;;4998470;28;20275;-68
2024/01/13 05:07:46;;;;;;;7.40;5.35;;;4.40;99.90;;;;;;5004459;28;20210;-70
2024/01/13 05:10:13;;;;;;;6.72;5.53;;;4.40;99.90;;;;;;5013036;28;20734;-68
2024/01/13 05:12:40;;;;;;;7.18;4.85;;;4.40;99.90;;;;;;5006741;28;20222;-67
2024/01/13 05:15:09;;;;;;;8.15;6.03;;;4.40;99.90;;;;;;5002576;28;20255;-69
2024/01/13 05:17:36;;;;;;;8.75;6.72;;;4.50;99.90;;;;;;5005030;28;20202;-71
2024/01/13 05:20:04;;;;;;;6.47;4.75;;;4.40;99.90;;;;;;4996460;28;20239;-70
2024/01/13 05:22:31;;;;;;;5.78;4.57;;;4.30;99.90;;;;;;4998891;28;20221;-68
2024/01/13 05:24:58;;;;;;;6.30;5.07;;;4.20;99.90;;;;;;4994816;28;20629;-72
2024/01/13 05:27:24;;;;;;;6.07;4.72;;;4.30;99.90;;;;;;4995443;28;20210;-71
2024/01/13 05:29:51;;;;;;;8.25;4.38;;;4.20;99.90;;;;;;5003227;28;20652;-70
2024/01/13 05:32:20;;;;;;;7.22;4.72;;;4.20;99.90;;;;;;4999687;28;20304;-70
2024/01/13 05:34:47;;;;;;;5.78;4.20;;;4.20;99.90;;;;;;4999625;28;20622;-71
2024/01/13 05:37:14;;;;;;;4.32;3.80;;;4.20;99.90;;;;;;5000425;28;20251;-72
2024/01/13 05:39:41;;;;;;;6.63;4.80;;;4.20;99.90;;;;;;5003987;28;20197;-69
2024/01/13 05:42:08;;;;;;;7.45;3.70;;;4.10;99.90;;;;;;4997553;28;20221;-70
2024/01/13 05:44:35;;;;;;;5.38;4.05;;;4.10;99.90;;;;;;4993528;28;20253;-70
2024/01/13 05:47:02;;;;;;;5.82;4.75;;;4.10;99.90;;;;;;4995231;28;20660;-69
2024/01/13 05:49:30;;;;;;;7.35;3.90;;;4.10;99.90;;;;;;4994166;28;20272;-72
2024/01/13 05:51:57;;;;;;;7.05;4.50;;;4.10;99.90;;;;;;4992865;28;20629;-69
2024/01/13 05:54:24;;;;;;;5.10;4.00;;;4.20;99.90;;;;;;4996595;28;20260;-71
2024/01/13 05:56:51;;;;;;;8.15;5.53;;;4.10;99.90;;;;;;4997596;28;20237;-70
2024/01/13 05:59:18;;;;;;;6.28;4.55;;;4.10;99.90;;;;;;5000532;28;20229;-70
2024/01/13 06:01:47;;;;;;;9.50;4.93;;;4.10;99.90;;;;;;4996643;28;20641;-68
2024/01/13 06:04:14;;;;;;;10.10;4.50;;;4.10;99.90;;;;;;5000849;28;20254;-69
2024/01/13 06:06:43;;;;;;;5.95;4.95;;;4.00;99.90;;;;;;4996120;28;20715;-70
2024/01/13 06:09:11;;;;;;;9.15;4.05;;;4.00;99.90;;;;;;5004377;28;20209;-70
2024/01/13 06:11:41;;;;;;;6.50;3.75;;;4.00;99.90;;;;;;4995560;28;20226;-68
2024/01/13 06:14:08;;;;;;;6.55;4.05;;;4.00;99.90;;;;;;4996844;28;20292;-70
2024/01/13 06:16:35;;;;;;;4.07;3.17;;;4.00;99.90;;;;;;5003492;28;20257;-70
2024/01/13 06:19:02;;;;;;;7.38;5.10;;;4.00;99.90;;;;;;4997166;28;20281;-67
2024/01/13 06:21:29;;;;;;;7.25;4.35;;;4.00;99.90;;;;;;5001466;28;20207;-70
2024/01/13 06:23:58;;;;;;;6.05;4.15;;;4.00;99.90;;;;;;4998576;28;20210;-72
2024/01/13 06:26:26;;;;;;;8.93;5.35;;;4.00;99.90;;;;;;4996504;28;20284;-72
2024/01/13 06:28:53;;;;;;;5.03;3.33;;;4.00;99.90;;;;;;5002162;28;20242;-71
2024/01/13 06:31:20;;;;;;;5.88;2.85;;;4.00;99.90;;;;;;4997093;28;20252;-69
2024/01/13 06:33:47;;;;;;;3.50;2.58;;;4.00;99.90;;;;;;4998202;28;20212;-67
2024/01/13 06:36:15;;;;;;;3.97;2.60;;;4.00;99.90;;;;;;5002983;28;20229;-70
2024/01/13 06:38:41;;;;;;;3.75;2.60;;;4.10;99.90;;;;;;5000185;28;20209;-71
2024/01/13 06:41:10;;;;;;;4.18;2.83;;;4.10;99.90;;;;;;4995089;28;20253;-69
2024/01/13 06:43:37;;;;;;;3.70;2.53;;;4.10;99.90;;;;;;4995989;28;20198;-70
2024/01/13 06:46:04;;;;;;;4.13;2.70;;;4.10;99.90;;;;;;5002653;28;20210;-69
2024/01/13 06:48:31;;;;;;;4.70;2.70;;;4.10;99.90;;;;;;5001775;28;20214;-69
2024/01/13 06:50:58;;;;;;;4.65;2.75;;;4.10;99.90;;;;;;5001724;28;20287;-69
2024/01/13 06:53:25;;;;;;;4.18;2.72;;;4.10;99.90;;;;;;4998135;28;20287;-67
2024/01/13 06:55:52;;;;;;;9.73;3.67;;;4.20;99.90;;;;;;4996188;28;20237;-69
2024/01/13 06:58:20;;;;;;;7.97;3.80;;;4.20;99.90;;;;;;5009817;28;20240;-69
2024/01/13 07:00:47;;;;;;;8.30;3.40;;;4.10;99.90;;;;;;4996305;28;20580;-68
2024/01/13 07:03:15;;;;;;;5.20;2.85;;;4.10;99.90;;;;;;5016683;28;20281;-70
2024/01/13 07:05:42;;;;;;;5.50;3.50;;;4.10;99.90;;;;;;5000330;28;20197;-71
2024/01/13 07:08:09;;;;;;;4.05;3.33;;;4.10;99.90;;;;;;5007536;28;20354;-71
2024/01/13 07:10:36;;;;;;;3.70;2.72;;;4.20;99.90;;;;;;4997518;28;20207;-67
2024/01/13 07:13:03;;;;;;;5.55;3.70;;;4.20;99.90;;;;;;5001725;28;20240;-68
2024/01/13 07:15:31;;;;;;;5.15;3.05;;;4.10;99.90;;;;;;4997018;28;20238;-70
2024/01/13 07:17:58;;;;;;;5.72;3.85;;;4.10;99.90;;;;;;5000388;28;20555;-70
2024/01/13 07:20:26;;;;;;;5.40;3.10;;;4.00;99.90;;;;;;5013097;28;20656;-68
2024/01/13 07:22:53;;;;;;;9.45;3.30;;;4.10;99.90;;;;;;5004082;28;20707;-70
2024/01/13 07:25:21;;;;;;;6.18;3.40;;;4.00;99.90;;;;;;5012994;28;20210;-69
2024/01/13 07:27:48;;;;;;;3.58;2.78;;;4.10;99.90;;;;;;5001885;28;20283;-70
2024/01/13 07:30:16;;;;;;;7.40;3.85;;;4.10;99.90;;;;;;5003480;28;20236;-71
2024/01/13 07:32:45;;;;;;;8.18;3.40;;;4.10;99.90;;;;;;4995122;28;20568;-69
2024/01/13 07:35:12;;;;;;;7.20;3.58;;;4.10;99.90;;;;;;5009220;28;20205;-69
2024/01/13 07:37:40;;;;;;;4.15;2.80;;;4.00;99.90;;;;;;4997247;28;20198;-66
2024/01/13 07:40:09;;;;;;;7.50;3.95;;;4.00;99.90;;;;;;4997372;28;20202;-68
2024/01/13 07:42:39;;;;;;;6.78;4.47;;;4.10;99.90;;;;;;5000617;28;20793;-71
2024/01/13 07:45:07;;;;;;;4.55;2.80;;;4.00;99.90;;;;;;4997298;28;20214;-69
2024/01/13 07:47:34;;;;;;;6.90;4.57;;;4.00;99.90;;;;;;4999151;28;20208;-70
2024/01/13 07:50:03;;;;;;;5.00;3.53;;;4.00;99.90;;;;;;5000746;28;20268;-68
2024/01/13 07:52:30;;;;;;;7.53;6.20;;;4.00;99.90;;;;;;4998984;28;20229;-67
2024/01/13 07:54:57;;;;;;;6.40;4.00;;;4.00;99.90;;;;;;5012356;28;20283;-68
2024/01/13 07:57:27;;;;;;;7.07;3.92;;;4.00;99.90;;;;;;5009517;28;20202;-67
2024/01/13 07:59:54;;;;;;;5.60;3.88;;;4.10;99.90;;;;;;4999673;28;20205;-67
2024/01/13 08:02:21;;;;;;;5.25;4.63;;;4.00;99.90;;;;;;5004658;28;20538;-69
2024/01/13 08:04:48;;;;;;;11.10;4.45;;;4.00;99.90;;;;;;5011876;28;20236;-72
2024/01/13 08:07:17;;;;;;;5.82;4.47;;;4.00;99.90;;;;;;5005848;28;20210;-69
2024/01/13 08:09:44;;;;;;;7.53;4.45;;;4.00;99.90;;;;;;4998526;28;20648;-67
2024/01/13 08:12:11;;;;;;;6.15;4.82;;;4.00;99.90;;;;;;4997656;28;20589;-68
2024/01/13 08:14:38;;;;;;;8.35;4.80;;;4.00;99.90;;;;;;4993740;28;20206;-69
2024/01/13 08:17:06;;;;;;;5.97;4.35;;;4.00;99.90;;;;;;5001949;28;20257;-66
2024/01/13 08:19:32;;;;;;;4.55;3.17;;;4.00;99.90;;;;;;5003194;28;20225;-68
2024/01/13 08:21:59;;;;;;;6.90;4.40;;;4.00;99.90;;;;;;5002886;28;20226;-70
2024/01/13 08:24:28;;;;;;;10.48;5.10;;;4.00;99.90;;;;;;4998541;28;20288;-71
2024/01/13 08:26:55;;;;;;;8.38;6.10;;;4.00;99.90;;;;;;4994606;28;20214;-69
2024/01/13 08:29:22;;;;;;;7.68;5.25;;;4.00;99.90;;;;;;4998163;28;20206;-68
2024/01/13 08:31:50;;;;;;;7.82;5.35;;;4.10;99.90;;;;;;5006652;28;20217;-67
2024/01/13 08:34:17;;;;;;;8.60;5.68;;;4.10;99.90;;;;;;4996403;28;20208;-66
2024/01/13 08:36:46;;;;;;;7.00;4.30;;;4.00;99.90;;;;;;4996417;28;20209;-66
2024/01/13 08:39:13;;;;;;;6.47;5.25;;;4.00;99.90;;;;;;5005107;28;20255;-67
2024/01/13 08:41:42;;;;;;;8.23;5.65;;;4.10;99.90;;;;;;4994967;28;20222;-71
2024/01/13 08:44:09;;;;;;;10.20;5.03;;;4.10;99.90;;;;;;5000330;28;20581;-69
2024/01/13 08:46:36;;;;;;;9.02;5.97;;;4.10;99.90;;;;;;5003347;28;20209;-68
2024/01/13 08:49:04;;;;;;;12.57;6.18;;;4.10;99.90;;;;;;4998517;28;20202;-70
2024/01/13 08:51:31;;;;;;;9.90;6.22;;;4.10;99.90;;;;;;4992489;28;20238;-68
2024/01/13 08:53:58;;;;;;;15.48;7.25;;;4.10;99.90;;;;;;4995290;28;20315;-67
2024/01/13 08:56:25;;;;;;;8.60;5.50;;;4.10;99.90;;;;;;5005071;28;20547;-69
2024/01/13 08:58:54;;;;;;;9.15;5.45;;;4.10;99.90;;;;;;4999404;28;20269;-70
2024/01/13 09:01:21;;;;;;;9.85;7.30;;;4.10;99.90;;;;;;4993881;28;20209;-68
2024/01/13 09:03:48;;;;;;;12.63;8.43;;;4.30;99.90;;;;;;5007173;28;20616;-68
2024/01/13 09:06:15;;;;;;;14.35;8.60;;;4.10;99.90;;;;;;5000070;28;20549;-66
2024/01/13 09:08:42;;;;;;;11.15;7.20;;;4.20;99.90;;;;;;5004488;28;20222;-66
2024/01/13 09:11:12;;;;;;;15.60;9.40;;;4.20;99.90;;;;;;5005832;28;20229;-69
2024/01/13 09:13:39;;;;;;;16.45;9.60;;;4.20;99.90;;;;;;4994596;28;20214;-68
2024/01/13 09:16:08;;;;;;;12.48;9.52;;;4.20;99.90;;;;;;5000340;28;20256;-68
2024/01/13 09:18:35;;;;;;;14.82;8.65;;;4.20;99.90;;;;;;4993265;28;20206;-67
2024/01/13 09:21:02;;;;;;;14.25;8.70;;;4.30;99.90;;;;;;5002582;28;20738;-69
2024/01/13 09:23:29;;;;;;;13.93;9.18;;;4.30;99.90;;;;;;5003207;28;20225;-68
2024/01/13 09:25:56;;;;;;;19.13;9.55;;;4.30;99.90;;;;;;5001842;28;20257;-70
2024/01/13 09:28:23;;;;;;;14.13;9.55;;;4.30;99.90;;;;;;4999775;28;20205;-70
2024/01/13 09:30:50;;;;;;;16.35;10.95;;;4.30;99.90;;;;;;4998929;28;20583;-69
2024/01/13 09:33:18;;;;;;;17.30;8.95;;;4.30;99.90;;;;;;4997448;28;20331;-67
2024/01/13 09:35:46;;;;;;;12.98;8.45;;;4.30;99.90;;;;;;5003963;28;20617;-67
2024/01/13 09:38:13;;;;;;;14.07;8.20;;;4.40;99.90;;;;;;5000394;28;20201;-71
2024/01/13 09:40:41;;;;;;;14.15;9.57;;;4.30;99.90;;;;;;4999946;28;20248;-73
2024/01/13 09:43:16;;;;;;;11.02;7.97;;;4.30;99.90;;;;;;4996313;28;20222;-72
2024/01/13 09:45:48;;;;;;;12.85;8.13;;;4.40;99.90;;;;;;5002146;28;20216;-70
2024/01/13 09:48:19;;;;;;;15.70;9.30;;;4.40;99.90;;;;;;5003855;28;20272;-71
2024/01/13 09:50:49;;;;;;;16.05;8.60;;;4.50;99.90;;;;;;4998998;28;20205;-69
2024/01/13 09:53:24;;;;;;;12.27;8.80;;;4.60;99.90;;;;;;4999163;28;20323;-72
2024/01/13 09:55:55;;;;;;;13.70;6.93;;;4.60;99.90;;;;;;5003802;28;20711;-68
2024/01/13 09:58:22;;;;;;;9.13;6.25;;;4.50;99.90;;;;;;5002331;28;20678;-70
2024/01/13 10:00:53;;;;;;;9.50;6.68;;;4.60;99.90;;;;;;4998616;28;20412;-71
2024/01/13 10:03:22;;;;;;;8.60;6.25;;;4.60;99.90;;;;;;5004516;28;20558;-71
2024/01/13 10:05:51;;;;;;;8.05;4.88;;;4.60;99.90;;;;;;5005544;28;20234;-67
2024/01/13 10:08:23;;;;;;;10.90;6.75;;;4.60;99.90;;;;;;4996786;28;20201;-73
2024/01/13 10:10:50;;;;;;;7.53;5.22;;;4.70;99.90;;;;;;5004932;28;20256;-69
2024/01/13 10:13:20;;;;;;;9.00;5.07;;;4.70;99.90;;;;;;4999905;28;20640;-67
2024/01/13 10:15:47;;;;;;;6.80;5.75;;;4.70;99.90;;;;;;5009763;28;20205;-68
2024/01/13 10:18:14;;;;;;;8.45;5.70;;;4.60;99.90;;;;;;5001297;28;20206;-69
2024/01/13 10:20:42;;;;;;;8.52;6.45;;;4.70;99.90;;;;;;4998157;28;20198;-67
2024/01/13 10:23:09;;;;;;;12.32;7.93;;;4.80;99.90;;;;;;4998176;28;20299;-67
2024/01/13 10:25:36;;;;;;;11.82;6.93;;;4.80;99.90;;;;;;4997217;28;20249;-67
2024/01/13 10:28:04;;;;;;;20.30;9.65;;;4.70;99.90;;;;;;4999143;28;20226;-68
2024/01/13 10:30:31;;;;;;;9.68;6.40;;;4.60;99.90;;;;;;4999527;28;20206;-67
2024/01/13 10:32:59;;;;;;;17.15;10.05;;;4.60;99.90;;;;;;5005873;28;20279;-69
2024/01/13 10:35:27;;;;;;;18.33;9.70;;;4.70;99.90;;;;;;5001904;28;20206;-68
2024/01/13 10:37:57;;;;;;;13.55;9.65;;;4.80;99.90;;;;;;4995298;28;20229;-67
2024/01/13 10:40:24;;;;;;;15.63;10.13;;;4.80;99.90;;;;;;4997573;28;20233;-71
2024/01/13 10:42:54;;;;;;;13.07;8.23;;;4.90;99.90;;;;;;4996599;28;20233;-71
2024/01/13 10:45:23;;;;;;;17.35;9.88;;;4.90;99.90;;;;;;5000927;28;20212;-71
2024/01/13 10:47:52;;;;;;;23.00;11.80;;;5.00;99.90;;;;;;4997863;28;20214;-67
2024/01/13 10:50:20;;;;;;;17.30;11.10;;;5.10;99.90;;;;;;5002018;28;20233;-67
2024/01/13 10:53:03;;;;;;;20.00;12.70;;;5.10;99.90;;;;;;4996339;28;20222;-67
2024/01/13 10:55:31;;;;;;;21.10;15.10;;;4.90;99.90;;;;;;5002046;28;20259;-71
2024/01/13 10:58:01;;;;;;;25.23;14.30;;;5.00;99.90;;;;;;4999727;28;20265;-69
2024/01/13 11:00:29;;;;;;;23.73;14.00;;;5.10;99.90;;;;;;4996646;28;20201;-66
2024/01/13 11:02:59;;;;;;;29.02;16.05;;;5.00;99.90;;;;;;4995767;28;20296;-69
2024/01/13 11:05:29;;;;;;;28.30;17.58;;;5.00;99.90;;;;;;4998154;28;20210;-69
2024/01/13 11:07:57;;;;;;;29.70;16.35;;;5.00;99.90;;;;;;5001654;28;20235;-68
2024/01/13 11:10:30;;;;;;;28.48;15.52;;;4.90;99.90;;;;;;5002763;28;20213;-67
2024/01/13 11:13:02;;;;;;;28.95;16.90;;;5.00;99.90;;;;;;4999473;28;20229;-69
2024/01/13 11:15:34;;;;;;;32.33;18.52;;;5.00;99.90;;;;;;5000632;28;20205;-66
2024/01/13 11:18:02;;;;;;;31.83;19.17;;;5.10;99.90;;;;;;5002838;28;20261;-71
2024/01/13 11:20:30;;;;;;;31.80;18.92;;;5.00;99.90;;;;;;4995113;28;20301;-67
2024/01/13 11:22:58;;;;;;;37.40;20.52;;;4.90;99.90;;;;;;4995355;28;20272;-67
2024/01/13 11:25:28;;;;;;;45.50;20.40;;;5.00;99.90;;;;;;5004761;28;20216;-71
2024/01/13 11:27:57;;;;;;;35.10;21.02;;;5.00;99.90;;;;;;4999940;28;20205;-69
2024/01/13 11:30:38;;;;;;;36.63;20.10;;;5.00;99.90;;;;;;4998470;28;20202;-70
2024/01/13 11:33:06;;;;;;;34.05;20.25;;;5.00;99.90;;;;;;5004117;28;20231;-68
2024/01/13 11:35:34;;;;;;;27.10;18.30;;;5.00;99.90;;;;;;4996531;28;20198;-68
2024/01/13 11:38:02;;;;;;;35.10;18.98;;;5.00;99.90;;;;;;4994756;28;20561;-67
2024/01/13 11:40:32;;;;;;;32.72;18.48;;;5.00;99.90;;;;;;5006097;28;20197;-70
2024/01/13 11:43:01;;;;;;;36.83;20.27;;;5.10;99.90;;;;;;4996107;28;20696;-69
2024/01/13 11:45:35;;;;;;;44.22;20.90;;;5.10;99.90;;;;;;4997211;28;20217;-69
2024/01/13 11:48:46;;;;;;;37.30;19.90;;;5.10;99.90;;;;;;5002311;28;20259;-66
2024/01/13 11:51:15;;;;;;;36.35;20.38;;;5.00;99.90;;;;;;4982519;28;20248;-70
2024/01/13 11:53:44;;;;;;;41.65;20.48;;;5.00;99.90;;;;;;4999085;28;20280;-67
2024/01/13 11:56:14;;;;;;;41.47;21.70;;;5.00;99.90;;;;;;4999786;28;20605;-67
2024/01/13 11:58:41;;;;;;;28.15;18.58;;;5.10;99.90;;;;;;5002946;28;20884;-68
2024/01/13 12:01:11;;;;;;;37.33;21.80;;;5.00;99.90;;;;;;5001886;28;20237;-67
2024/01/13 12:03:41;;;;;;;46.05;22.77;;;5.00;99.90;;;;;;5004320;28;20668;-69
2024/01/13 12:06:09;;;;;;;28.85;18.25;;;5.00;99.90;;;;;;5000612;28;20252;-68
2024/01/13 12:08:37;;;;;;;38.08;21.98;;;5.10;99.90;;;;;;4996818;28;20616;-70
2024/01/13 12:11:05;;;;;;;33.78;21.52;;;5.20;99.90;;;;;;5006424;28;20232;-70
2024/01/13 12:13:35;;;;;;;33.30;19.45;;;5.30;99.90;;;;;;4995981;28;20229;-69
2024/01/13 12:16:05;;;;;;;40.60;22.40;;;5.20;99.90;;;;;;5000003;28;20262;-68
2024/01/13 12:18:33;;;;;;;32.03;20.50;;;5.20;99.90;;;;;;4993207;28;20618;-68
2024/01/13 12:21:03;;;;;;;27.55;17.00;;;5.30;99.90;;;;;;4995139;28;20202;-67
2024/01/13 12:23:30;;;;;;;31.85;18.83;;;5.30;99.90;;;;;;4993926;28;20741;-68
2024/01/13 12:25:57;;;;;;;31.05;17.70;;;5.30;99.90;;;;;;5008519;28;20219;-68
2024/01/13 12:28:25;;;;;;;36.17;21.48;;;5.30;99.90;;;;;;5001365;28;20660;-70
2024/01/13 12:30:54;;;;;;;32.40;18.55;;;5.30;99.90;;;;;;4993750;28;20454;-70
2024/01/13 12:33:23;;;;;;;34.53;19.75;;;5.40;99.90;;;;;;4993284;28;20304;-67
2024/01/13 12:35:51;;;;;;;41.03;20.77;;;5.40;99.90;;;;;;4996802;28;20228;-67
2024/01/13 12:38:18;;;;;;;37.05;21.67;;;5.40;99.90;;;;;;4996409;28;20245;-71
2024/01/13 12:40:46;;;;;;;33.35;18.52;;;5.20;99.90;;;;;;4995310;28;20261;-68
2024/01/13 12:43:13;;;;;;;37.85;21.42;;;5.30;99.90;;;;;;4993541;28;20237;-70
2024/01/13 12:45:40;;;;;;;33.75;19.52;;;5.40;99.90;;;;;;4996519;28;20674;-69
2024/01/13 12:48:09;;;;;;;34.42;19.60;;;5.30;99.90;;;;;;4999300;28;20293;-67
2024/01/13 12:50:36;;;;;;;41.65;20.50;;;5.40;99.90;;;;;;4994034;28;20279;-69
2024/01/13 12:53:03;;;;;;;31.02;19.60;;;5.30;99.90;;;;;;4994729;28;20237;-66
2024/01/13 12:55:31;;;;;;;35.67;21.13;;;5.30;99.90;;;;;;4999546;28;20263;-67
2024/01/13 12:57:58;;;;;;;32.92;20.30;;;5.20;99.90;;;;;;5005723;28;20285;-69